sensor_id;sensor_type;location;lat;lon;timestamp;P1;durP1;ratioP1;P2;durP2;ratioP2
2177;SDS011;1095;50.992;6.798;2023-09-07T00:00:39;16.48;;;11.55;;
2177;SDS011;1095;50.992;6.798;2023-09-07T00:03:05;18.45;;;11.50;;
2177;SDS011;1095;50.992;6.798;2023-09-07T00:05:32;17.05;;;12.18;;
2177;SDS011;1095;50.992;6.798;2023-09-07T00:07:59;17.98;;;11.70;;
2177;SDS011;1095;50.992;6.798;2023-09-07T00:10:25;17.83;;;11.40;;
2177;SDS011;1095;50.992;6.798;2023-09-07T00:12:52;16.15;;;11.70;;
2177;SDS011;1095;50.992;6.798;2023-09-07T00:15:28;13.90;;;11.40;;
2177;SDS011;1095;50.992;6.798;2023-09-07T00:17:55;16.63;;;12.55;;
2177;SDS011;1095;50.992;6.798;2023-09-07T00:20:22;14.35;;;11.40;;
2177;SDS011;1095;50.992;6.798;2023-09-07T00:22:49;15.43;;;10.65;;
2177;SDS011;1095;50.992;6.798;2023-09-07T00:25:16;14.45;;;10.95;;
2177;SDS011;1095;50.992;6.798;2023-09-07T00:27:43;15.88;;;11.23;;
2177;SDS011;1095;50.992;6.798;2023-09-07T00:30:10;13.13;;;10.75;;
2177;SDS011;1095;50.992;6.798;2023-09-07T00:32:38;11.85;;;10.15;;
2177;SDS011;1095;50.992;6.798;2023-09-07T00:35:05;12.63;;;10.40;;
2177;SDS011;1095;50.992;6.798;2023-09-07T00:37:32;14.82;;;10.23;;
2177;SDS011;1095;50.992;6.798;2023-09-07T00:39:59;12.63;;;9.95;;
2177;SDS011;1095;50.992;6.798;2023-09-07T00:42:26;13.73;;;10.27;;
2177;SDS011;1095;50.992;6.798;2023-09-07T00:44:53;13.68;;;10.25;;
2177;SDS011;1095;50.992;6.798;2023-09-07T00:47:20;12.32;;;10.55;;
2177;SDS011;1095;50.992;6.798;2023-09-07T00:49:49;12.57;;;10.25;;
2177;SDS011;1095;50.992;6.798;2023-09-07T00:52:16;13.82;;;10.82;;
2177;SDS011;1095;50.992;6.798;2023-09-07T00:54:44;13.43;;;9.63;;
2177;SDS011;1095;50.992;6.798;2023-09-07T00:57:11;12.93;;;10.95;;
2177;SDS011;1095;50.992;6.798;2023-09-07T00:59:38;10.98;;;9.70;;
2177;SDS011;1095;50.992;6.798;2023-09-07T01:02:04;11.93;;;10.10;;
2177;SDS011;1095;50.992;6.798;2023-09-07T01:04:31;12.50;;;10.57;;
2177;SDS011;1095;50.992;6.798;2023-09-07T01:07:01;11.90;;;10.20;;
2177;SDS011;1095;50.992;6.798;2023-09-07T01:09:30;13.50;;;10.00;;
2177;SDS011;1095;50.992;6.798;2023-09-07T01:11:58;13.27;;;10.55;;
2177;SDS011;1095;50.992;6.798;2023-09-07T01:14:24;16.10;;;10.10;;
2177;SDS011;1095;50.992;6.798;2023-09-07T01:16:51;13.20;;;10.30;;
2177;SDS011;1095;50.992;6.798;2023-09-07T01:19:18;12.00;;;10.35;;
2177;SDS011;1095;50.992;6.798;2023-09-07T01:21:47;11.88;;;9.32;;
2177;SDS011;1095;50.992;6.798;2023-09-07T01:24:14;11.65;;;9.63;;
2177;SDS011;1095;50.992;6.798;2023-09-07T01:26:42;14.70;;;9.20;;
2177;SDS011;1095;50.992;6.798;2023-09-07T01:29:14;15.73;;;9.87;;
2177;SDS011;1095;50.992;6.798;2023-09-07T01:31:41;12.02;;;9.82;;
2177;SDS011;1095;50.992;6.798;2023-09-07T01:34:08;14.32;;;10.32;;
2177;SDS011;1095;50.992;6.798;2023-09-07T01:36:35;13.18;;;9.55;;
2177;SDS011;1095;50.992;6.798;2023-09-07T01:39:03;14.50;;;10.13;;
2177;SDS011;1095;50.992;6.798;2023-09-07T01:41:31;13.95;;;9.70;;
2177;SDS011;1095;50.992;6.798;2023-09-07T01:43:58;15.43;;;10.18;;
2177;SDS011;1095;50.992;6.798;2023-09-07T01:46:25;11.68;;;9.50;;
2177;SDS011;1095;50.992;6.798;2023-09-07T01:48:51;13.13;;;9.82;;
2177;SDS011;1095;50.992;6.798;2023-09-07T01:51:18;14.73;;;10.15;;
2177;SDS011;1095;50.992;6.798;2023-09-07T01:53:46;15.88;;;10.23;;
2177;SDS011;1095;50.992;6.798;2023-09-07T01:56:15;13.27;;;9.50;;
2177;SDS011;1095;50.992;6.798;2023-09-07T01:58:41;12.23;;;9.15;;
2177;SDS011;1095;50.992;6.798;2023-09-07T02:01:09;12.25;;;9.75;;
2177;SDS011;1095;50.992;6.798;2023-09-07T02:03:46;12.27;;;10.43;;
2177;SDS011;1095;50.992;6.798;2023-09-07T02:06:13;11.18;;;9.98;;
2177;SDS011;1095;50.992;6.798;2023-09-07T02:08:40;12.35;;;9.88;;
2177;SDS011;1095;50.992;6.798;2023-09-07T02:11:06;16.50;;;10.20;;
2177;SDS011;1095;50.992;6.798;2023-09-07T02:13:34;14.60;;;9.25;;
2177;SDS011;1095;50.992;6.798;2023-09-07T02:16:03;12.63;;;9.73;;
2177;SDS011;1095;50.992;6.798;2023-09-07T02:18:31;13.90;;;10.38;;
2177;SDS011;1095;50.992;6.798;2023-09-07T02:21:01;11.55;;;10.35;;
2177;SDS011;1095;50.992;6.798;2023-09-07T02:23:28;13.02;;;10.25;;
2177;SDS011;1095;50.992;6.798;2023-09-07T02:25:55;10.65;;;9.52;;
2177;SDS011;1095;50.992;6.798;2023-09-07T02:28:22;14.38;;;9.65;;
2177;SDS011;1095;50.992;6.798;2023-09-07T02:30:50;13.98;;;9.48;;
2177;SDS011;1095;50.992;6.798;2023-09-07T02:33:17;14.85;;;8.88;;
2177;SDS011;1095;50.992;6.798;2023-09-07T02:35:43;11.93;;;9.13;;
2177;SDS011;1095;50.992;6.798;2023-09-07T02:38:10;11.57;;;9.05;;
2177;SDS011;1095;50.992;6.798;2023-09-07T02:40:39;14.65;;;8.98;;
2177;SDS011;1095;50.992;6.798;2023-09-07T02:43:07;11.05;;;8.73;;
2177;SDS011;1095;50.992;6.798;2023-09-07T02:45:34;17.27;;;9.20;;
2177;SDS011;1095;50.992;6.798;2023-09-07T02:48:02;12.57;;;8.70;;
2177;SDS011;1095;50.992;6.798;2023-09-07T02:50:29;11.20;;;8.73;;
2177;SDS011;1095;50.992;6.798;2023-09-07T02:52:58;13.15;;;9.13;;
2177;SDS011;1095;50.992;6.798;2023-09-07T02:55:25;11.35;;;8.60;;
2177;SDS011;1095;50.992;6.798;2023-09-07T02:57:52;12.60;;;8.88;;
2177;SDS011;1095;50.992;6.798;2023-09-07T03:00:18;12.35;;;8.40;;
2177;SDS011;1095;50.992;6.798;2023-09-07T03:02:45;13.43;;;9.00;;
2177;SDS011;1095;50.992;6.798;2023-09-07T03:05:15;9.95;;;8.40;;
2177;SDS011;1095;50.992;6.798;2023-09-07T03:07:41;10.75;;;8.95;;
2177;SDS011;1095;50.992;6.798;2023-09-07T03:10:11;14.05;;;8.63;;
2177;SDS011;1095;50.992;6.798;2023-09-07T03:12:37;11.73;;;8.85;;
2177;SDS011;1095;50.992;6.798;2023-09-07T03:15:04;13.00;;;9.40;;
2177;SDS011;1095;50.992;6.798;2023-09-07T03:17:32;12.60;;;9.35;;
2177;SDS011;1095;50.992;6.798;2023-09-07T03:19:59;10.35;;;8.43;;
2177;SDS011;1095;50.992;6.798;2023-09-07T03:22:27;13.23;;;8.93;;
2177;SDS011;1095;50.992;6.798;2023-09-07T03:24:54;14.32;;;9.38;;
2177;SDS011;1095;50.992;6.798;2023-09-07T03:27:21;10.60;;;9.18;;
2177;SDS011;1095;50.992;6.798;2023-09-07T03:29:49;10.75;;;8.70;;
2177;SDS011;1095;50.992;6.798;2023-09-07T03:32:16;14.65;;;9.07;;
2177;SDS011;1095;50.992;6.798;2023-09-07T03:34:43;14.40;;;9.60;;
2177;SDS011;1095;50.992;6.798;2023-09-07T03:37:10;11.50;;;9.20;;
2177;SDS011;1095;50.992;6.798;2023-09-07T03:39:38;13.02;;;8.88;;
2177;SDS011;1095;50.992;6.798;2023-09-07T03:42:04;11.05;;;8.98;;
2177;SDS011;1095;50.992;6.798;2023-09-07T03:44:31;12.55;;;8.50;;
2177;SDS011;1095;50.992;6.798;2023-09-07T03:46:57;10.07;;;8.77;;
2177;SDS011;1095;50.992;6.798;2023-09-07T03:49:24;12.45;;;9.63;;
2177;SDS011;1095;50.992;6.798;2023-09-07T03:51:51;15.77;;;9.32;;
2177;SDS011;1095;50.992;6.798;2023-09-07T03:54:17;11.68;;;9.57;;
2177;SDS011;1095;50.992;6.798;2023-09-07T03:56:45;11.73;;;8.65;;
2177;SDS011;1095;50.992;6.798;2023-09-07T03:59:12;10.68;;;9.05;;
2177;SDS011;1095;50.992;6.798;2023-09-07T04:01:38;10.63;;;9.52;;
2177;SDS011;1095;50.992;6.798;2023-09-07T04:04:05;10.57;;;8.40;;
2177;SDS011;1095;50.992;6.798;2023-09-07T04:06:32;12.90;;;9.30;;
2177;SDS011;1095;50.992;6.798;2023-09-07T04:08:58;14.02;;;9.00;;
2177;SDS011;1095;50.992;6.798;2023-09-07T04:11:25;11.00;;;9.40;;
2177;SDS011;1095;50.992;6.798;2023-09-07T04:13:53;12.35;;;9.63;;
2177;SDS011;1095;50.992;6.798;2023-09-07T04:16:20;15.35;;;9.55;;
2177;SDS011;1095;50.992;6.798;2023-09-07T04:18:46;13.63;;;9.27;;
2177;SDS011;1095;50.992;6.798;2023-09-07T04:21:13;11.07;;;9.80;;
2177;SDS011;1095;50.992;6.798;2023-09-07T04:23:39;10.52;;;9.35;;
2177;SDS011;1095;50.992;6.798;2023-09-07T04:26:06;12.35;;;10.02;;
2177;SDS011;1095;50.992;6.798;2023-09-07T04:28:33;11.95;;;9.57;;
2177;SDS011;1095;50.992;6.798;2023-09-07T04:31:01;16.42;;;9.80;;
2177;SDS011;1095;50.992;6.798;2023-09-07T04:33:29;13.93;;;10.20;;
2177;SDS011;1095;50.992;6.798;2023-09-07T04:35:56;12.00;;;9.68;;
2177;SDS011;1095;50.992;6.798;2023-09-07T04:38:23;12.20;;;9.45;;
2177;SDS011;1095;50.992;6.798;2023-09-07T04:40:49;13.05;;;9.80;;
2177;SDS011;1095;50.992;6.798;2023-09-07T04:43:16;16.33;;;9.77;;
2177;SDS011;1095;50.992;6.798;2023-09-07T04:45:45;12.32;;;9.80;;
2177;SDS011;1095;50.992;6.798;2023-09-07T04:48:14;16.08;;;10.80;;
2177;SDS011;1095;50.992;6.798;2023-09-07T04:50:41;15.13;;;10.07;;
2177;SDS011;1095;50.992;6.798;2023-09-07T04:53:07;17.85;;;9.45;;
2177;SDS011;1095;50.992;6.798;2023-09-07T04:55:36;11.95;;;10.00;;
2177;SDS011;1095;50.992;6.798;2023-09-07T04:58:04;11.32;;;9.38;;
2177;SDS011;1095;50.992;6.798;2023-09-07T05:00:30;14.32;;;9.63;;
2177;SDS011;1095;50.992;6.798;2023-09-07T05:02:57;14.95;;;10.00;;
2177;SDS011;1095;50.992;6.798;2023-09-07T05:05:25;11.43;;;9.90;;
2177;SDS011;1095;50.992;6.798;2023-09-07T05:07:52;13.90;;;10.02;;
2177;SDS011;1095;50.992;6.798;2023-09-07T05:10:19;12.88;;;9.70;;
2177;SDS011;1095;50.992;6.798;2023-09-07T05:12:45;13.48;;;10.48;;
2177;SDS011;1095;50.992;6.798;2023-09-07T05:15:12;19.80;;;10.40;;
2177;SDS011;1095;50.992;6.798;2023-09-07T05:17:39;12.57;;;10.32;;
2177;SDS011;1095;50.992;6.798;2023-09-07T05:20:06;13.05;;;9.85;;
2177;SDS011;1095;50.992;6.798;2023-09-07T05:22:35;16.17;;;10.13;;
2177;SDS011;1095;50.992;6.798;2023-09-07T05:25:05;13.52;;;9.68;;
2177;SDS011;1095;50.992;6.798;2023-09-07T05:27:34;16.83;;;10.13;;
2177;SDS011;1095;50.992;6.798;2023-09-07T05:30:02;12.68;;;9.43;;
2177;SDS011;1095;50.992;6.798;2023-09-07T05:32:29;17.27;;;10.45;;
2177;SDS011;1095;50.992;6.798;2023-09-07T05:34:55;12.77;;;10.10;;
2177;SDS011;1095;50.992;6.798;2023-09-07T05:37:22;14.88;;;10.27;;
2177;SDS011;1095;50.992;6.798;2023-09-07T05:39:50;16.25;;;9.57;;
2177;SDS011;1095;50.992;6.798;2023-09-07T05:42:17;14.43;;;9.88;;
2177;SDS011;1095;50.992;6.798;2023-09-07T05:44:43;11.55;;;9.45;;
2177;SDS011;1095;50.992;6.798;2023-09-07T05:47:10;12.65;;;9.40;;
2177;SDS011;1095;50.992;6.798;2023-09-07T05:49:37;11.23;;;9.10;;
2177;SDS011;1095;50.992;6.798;2023-09-07T05:57:07;14.60;;;9.57;;
2177;SDS011;1095;50.992;6.798;2023-09-07T05:59:34;12.15;;;9.75;;
2177;SDS011;1095;50.992;6.798;2023-09-07T06:02:01;12.43;;;8.93;;
2177;SDS011;1095;50.992;6.798;2023-09-07T06:04:29;13.65;;;9.32;;
2177;SDS011;1095;50.992;6.798;2023-09-07T06:06:55;13.90;;;9.90;;
2177;SDS011;1095;50.992;6.798;2023-09-07T06:09:22;10.90;;;8.85;;
2177;SDS011;1095;50.992;6.798;2023-09-07T06:24:09;10.30;;;7.75;;
2177;SDS011;1095;50.992;6.798;2023-09-07T06:59:02;9.45;;;6.60;;
2177;SDS011;1095;50.992;6.798;2023-09-07T07:57:56;9.43;;;6.60;;
2177;SDS011;1095;50.992;6.798;2023-09-07T12:23:15;10.32;;;6.28;;
2177;SDS011;1095;50.992;6.798;2023-09-07T12:25:41;10.52;;;6.53;;
2177;SDS011;1095;50.992;6.798;2023-09-07T12:28:08;7.38;;;6.65;;
2177;SDS011;1095;50.992;6.798;2023-09-07T12:30:35;10.20;;;6.63;;
2177;SDS011;1095;50.992;6.798;2023-09-07T12:33:03;9.82;;;6.72;;
2177;SDS011;1095;50.992;6.798;2023-09-07T12:35:30;7.10;;;6.38;;
2177;SDS011;1095;50.992;6.798;2023-09-07T12:37:57;6.93;;;6.13;;
2177;SDS011;1095;50.992;6.798;2023-09-07T12:40:23;9.57;;;5.95;;
2177;SDS011;1095;50.992;6.798;2023-09-07T12:42:50;9.02;;;5.57;;
2177;SDS011;1095;50.992;6.798;2023-09-07T12:45:17;7.55;;;6.75;;
2177;SDS011;1095;50.992;6.798;2023-09-07T12:47:43;8.05;;;6.75;;
2177;SDS011;1095;50.992;6.798;2023-09-07T12:50:11;7.32;;;6.50;;
2177;SDS011;1095;50.992;6.798;2023-09-07T12:52:38;11.27;;;6.43;;
2177;SDS011;1095;50.992;6.798;2023-09-07T12:55:05;6.82;;;6.13;;
2177;SDS011;1095;50.992;6.798;2023-09-07T12:57:32;8.07;;;6.45;;
2177;SDS011;1095;50.992;6.798;2023-09-07T12:59:59;11.10;;;6.13;;
2177;SDS011;1095;50.992;6.798;2023-09-07T13:02:26;8.98;;;6.50;;
2177;SDS011;1095;50.992;6.798;2023-09-07T13:04:53;8.27;;;6.20;;
2177;SDS011;1095;50.992;6.798;2023-09-07T18:40:25;9.15;;;6.70;;
2177;SDS011;1095;50.992;6.798;2023-09-07T18:42:51;7.43;;;6.63;;
2177;SDS011;1095;50.992;6.798;2023-09-07T18:45:19;9.10;;;6.47;;
2177;SDS011;1095;50.992;6.798;2023-09-07T18:47:45;8.88;;;6.22;;
2177;SDS011;1095;50.992;6.798;2023-09-07T18:50:13;11.73;;;6.72;;
2177;SDS011;1095;50.992;6.798;2023-09-07T18:52:40;10.68;;;6.70;;
2177;SDS011;1095;50.992;6.798;2023-09-07T18:55:07;9.65;;;6.70;;
2177;SDS011;1095;50.992;6.798;2023-09-07T18:57:34;9.18;;;6.72;;
2177;SDS011;1095;50.992;6.798;2023-09-07T19:00:03;9.57;;;6.72;;
2177;SDS011;1095;50.992;6.798;2023-09-07T19:02:30;10.02;;;6.95;;
2177;SDS011;1095;50.992;6.798;2023-09-07T19:04:57;9.93;;;6.95;;
2177;SDS011;1095;50.992;6.798;2023-09-07T19:07:25;9.00;;;6.22;;
2177;SDS011;1095;50.992;6.798;2023-09-07T19:09:54;9.63;;;7.00;;
2177;SDS011;1095;50.992;6.798;2023-09-07T19:19:28;11.88;;;7.60;;
2177;SDS011;1095;50.992;6.798;2023-09-07T19:52:11;13.02;;;7.35;;
2177;SDS011;1095;50.992;6.798;2023-09-07T19:57:55;9.73;;;7.32;;
2177;SDS011;1095;50.992;6.798;2023-09-07T20:38:04;11.48;;;7.95;;
2177;SDS011;1095;50.992;6.798;2023-09-07T20:57:25;11.50;;;8.43;;
2177;SDS011;1095;50.992;6.798;2023-09-07T21:00:07;10.77;;;8.32;;
2177;SDS011;1095;50.992;6.798;2023-09-07T21:02:38;10.85;;;8.25;;
2177;SDS011;1095;50.992;6.798;2023-09-07T21:05:15;13.05;;;8.43;;
2177;SDS011;1095;50.992;6.798;2023-09-07T21:07:42;10.70;;;8.02;;
2177;SDS011;1095;50.992;6.798;2023-09-07T21:10:09;15.77;;;8.65;;
2177;SDS011;1095;50.992;6.798;2023-09-07T21:12:36;12.27;;;9.13;;
2177;SDS011;1095;50.992;6.798;2023-09-07T21:15:05;11.02;;;8.48;;
2177;SDS011;1095;50.992;6.798;2023-09-07T21:17:35;10.13;;;8.57;;
2177;SDS011;1095;50.992;6.798;2023-09-07T21:20:02;15.30;;;8.38;;
2177;SDS011;1095;50.992;6.798;2023-09-07T21:22:29;12.45;;;9.13;;
